KSLE/SLE METAR and TAF weather

Enter ICAO airport designator
Station Type Date Time Source
KSLE METAR 2022/05/25 00:56 UTC NOAA

KSLE 250056Z 32004KT 10SM BKN080 22/11 A3000 RMK AO2 RAE02 SLP158 P0000 T02170106


Station Type Date Time Source
KSLE Decoded METAR 2022/05/25 00:56 UTC NOAA

SALEM MCNARY FIELD, OR, United States (KSLE) 44-54N 123-00W 59M
May 24, 2022 - 08:56 PM EDT / 2022.05.25 0056 UTC
Wind: from the NW (320 degrees) at 5 MPH (4 KT):0
Visibility: 10 mile(s):0
Sky conditions: mostly cloudy
Precipitation last hour: A trace
Temperature: 71.1 F (21.7 C)
Dew Point: 51.1 F (10.6 C)
Relative Humidity: 49%
Pressure (altimeter): 30 in. Hg (1015 hPa)
ob: KSLE 250056Z 32004KT 10SM BKN080 22/11 A3000 RMK AO2 RAE02 SLP158 P0000 T02170106
cycle: 1

Station Type Date Time Source
KSLE TAF 2022/05/24 18:22 UTC NOAA

TAF KSLE 241720Z 2418/2518 VRB03KT P6SM SKC
FM242300 18005KT P6SM BKN060

Example: see airport list